sensor_id;sensor_type;location;lat;lon;timestamp;P1;durP1;ratioP1;P2;durP2;ratioP2
54557;SDS011;40452;50.080;20.040;2024-03-08T04:34:10;10.38;;;7.03;;
54557;SDS011;40452;50.080;20.040;2024-03-08T04:36:36;12.57;;;7.47;;
54557;SDS011;40452;50.080;20.040;2024-03-08T04:39:03;9.25;;;7.00;;
54557;SDS011;40452;50.080;20.040;2024-03-08T04:41:29;10.25;;;6.95;;
54557;SDS011;40452;50.080;20.040;2024-03-08T04:43:56;11.15;;;7.10;;
54557;SDS011;40452;50.080;20.040;2024-03-08T04:46:23;9.32;;;6.45;;
54557;SDS011;40452;50.080;20.040;2024-03-08T04:48:49;9.73;;;6.75;;
54557;SDS011;40452;50.080;20.040;2024-03-08T04:51:15;9.52;;;6.75;;
54557;SDS011;40452;50.080;20.040;2024-03-08T04:53:41;17.20;;;6.65;;
54557;SDS011;40452;50.080;20.040;2024-03-08T04:56:07;9.43;;;6.30;;
54557;SDS011;40452;50.080;20.040;2024-03-08T04:58:36;9.43;;;6.68;;
54557;SDS011;40452;50.080;20.040;2024-03-08T05:01:03;8.85;;;6.28;;
54557;SDS011;40452;50.080;20.040;2024-03-08T05:03:29;9.73;;;5.80;;
54557;SDS011;40452;50.080;20.040;2024-03-08T05:05:55;8.43;;;6.05;;
54557;SDS011;40452;50.080;20.040;2024-03-08T05:08:21;9.55;;;6.07;;
54557;SDS011;40452;50.080;20.040;2024-03-08T05:10:47;8.38;;;5.55;;
54557;SDS011;40452;50.080;20.040;2024-03-08T05:13:13;8.85;;;6.38;;
54557;SDS011;40452;50.080;20.040;2024-03-08T05:15:39;6.72;;;5.10;;
54557;SDS011;40452;50.080;20.040;2024-03-08T05:18:05;9.00;;;5.15;;
54557;SDS011;40452;50.080;20.040;2024-03-08T05:20:31;10.73;;;6.47;;
54557;SDS011;40452;50.080;20.040;2024-03-08T05:22:57;7.05;;;5.47;;
54557;SDS011;40452;50.080;20.040;2024-03-08T05:25:25;6.60;;;5.18;;
54557;SDS011;40452;50.080;20.040;2024-03-08T05:27:51;8.50;;;5.95;;
54557;SDS011;40452;50.080;20.040;2024-03-08T05:30:17;9.93;;;5.80;;
54557;SDS011;40452;50.080;20.040;2024-03-08T05:32:44;7.78;;;5.57;;
54557;SDS011;40452;50.080;20.040;2024-03-08T05:35:12;12.57;;;5.50;;
54557;SDS011;40452;50.080;20.040;2024-03-08T05:37:41;8.25;;;5.72;;
54557;SDS011;40452;50.080;20.040;2024-03-08T05:40:07;7.13;;;4.78;;
54557;SDS011;40452;50.080;20.040;2024-03-08T05:42:37;8.50;;;5.60;;
54557;SDS011;40452;50.080;20.040;2024-03-08T05:45:03;7.63;;;5.20;;
54557;SDS011;40452;50.080;20.040;2024-03-08T05:47:31;7.95;;;5.68;;
54557;SDS011;40452;50.080;20.040;2024-03-08T05:49:58;9.40;;;5.88;;
54557;SDS011;40452;50.080;20.040;2024-03-08T05:52:25;8.32;;;5.30;;
54557;SDS011;40452;50.080;20.040;2024-03-08T05:54:51;8.77;;;5.38;;
54557;SDS011;40452;50.080;20.040;2024-03-08T05:57:17;7.93;;;5.38;;
54557;SDS011;40452;50.080;20.040;2024-03-08T05:59:43;8.30;;;5.78;;
54557;SDS011;40452;50.080;20.040;2024-03-08T06:02:09;9.25;;;5.97;;
54557;SDS011;40452;50.080;20.040;2024-03-08T06:04:36;7.10;;;5.30;;
54557;SDS011;40452;50.080;20.040;2024-03-08T06:07:03;7.45;;;5.30;;
54557;SDS011;40452;50.080;20.040;2024-03-08T06:09:29;7.75;;;5.20;;
54557;SDS011;40452;50.080;20.040;2024-03-08T06:11:55;9.38;;;5.07;;
54557;SDS011;40452;50.080;20.040;2024-03-08T06:14:22;10.25;;;5.57;;
54557;SDS011;40452;50.080;20.040;2024-03-08T06:16:48;9.27;;;5.68;;
54557;SDS011;40452;50.080;20.040;2024-03-08T06:19:17;10.77;;;5.47;;
54557;SDS011;40452;50.080;20.040;2024-03-08T06:21:43;9.15;;;5.35;;
54557;SDS011;40452;50.080;20.040;2024-03-08T06:24:12;9.38;;;5.90;;
54557;SDS011;40452;50.080;20.040;2024-03-08T06:26:39;8.80;;;5.18;;
54557;SDS011;40452;50.080;20.040;2024-03-08T06:29:07;8.30;;;5.90;;
54557;SDS011;40452;50.080;20.040;2024-03-08T06:31:33;9.02;;;5.85;;
54557;SDS011;40452;50.080;20.040;2024-03-08T06:33:59;9.82;;;5.38;;
54557;SDS011;40452;50.080;20.040;2024-03-08T06:36:26;10.30;;;5.03;;
54557;SDS011;40452;50.080;20.040;2024-03-08T06:38:53;15.48;;;5.78;;
54557;SDS011;40452;50.080;20.040;2024-03-08T06:41:19;10.05;;;6.18;;
54557;SDS011;40452;50.080;20.040;2024-03-08T06:43:46;8.68;;;6.03;;
54557;SDS011;40452;50.080;20.040;2024-03-08T06:46:14;15.43;;;6.10;;
54557;SDS011;40452;50.080;20.040;2024-03-08T06:48:40;8.65;;;5.70;;
54557;SDS011;40452;50.080;20.040;2024-03-08T06:51:08;10.73;;;5.78;;
54557;SDS011;40452;50.080;20.040;2024-03-08T06:53:35;9.43;;;5.40;;
54557;SDS011;40452;50.080;20.040;2024-03-08T06:56:02;9.35;;;5.82;;
54557;SDS011;40452;50.080;20.040;2024-03-08T06:58:28;11.13;;;6.55;;
54557;SDS011;40452;50.080;20.040;2024-03-08T07:00:54;8.85;;;6.05;;
54557;SDS011;40452;50.080;20.040;2024-03-08T07:03:23;10.30;;;6.28;;
54557;SDS011;40452;50.080;20.040;2024-03-08T07:05:49;10.75;;;6.25;;
54557;SDS011;40452;50.080;20.040;2024-03-08T07:08:15;10.23;;;6.28;;
54557;SDS011;40452;50.080;20.040;2024-03-08T07:10:41;11.95;;;6.22;;
54557;SDS011;40452;50.080;20.040;2024-03-08T07:13:10;15.82;;;6.28;;
54557;SDS011;40452;50.080;20.040;2024-03-08T07:15:36;7.72;;;5.93;;
54557;SDS011;40452;50.080;20.040;2024-03-08T07:18:02;8.48;;;5.65;;
54557;SDS011;40452;50.080;20.040;2024-03-08T07:20:28;10.52;;;6.22;;
54557;SDS011;40452;50.080;20.040;2024-03-08T07:22:54;9.25;;;6.00;;
54557;SDS011;40452;50.080;20.040;2024-03-08T07:25:20;8.52;;;6.00;;
54557;SDS011;40452;50.080;20.040;2024-03-08T07:27:47;9.65;;;6.38;;
54557;SDS011;40452;50.080;20.040;2024-03-08T07:30:13;10.20;;;6.03;;
54557;SDS011;40452;50.080;20.040;2024-03-08T07:32:59;9.35;;;6.22;;
54557;SDS011;40452;50.080;20.040;2024-03-08T07:35:27;9.75;;;6.30;;
54557;SDS011;40452;50.080;20.040;2024-03-08T07:37:53;10.18;;;6.05;;
54557;SDS011;40452;50.080;20.040;2024-03-08T07:40:20;10.20;;;6.25;;
54557;SDS011;40452;50.080;20.040;2024-03-08T07:42:46;9.55;;;6.15;;
54557;SDS011;40452;50.080;20.040;2024-03-08T07:45:12;11.13;;;6.38;;
54557;SDS011;40452;50.080;20.040;2024-03-08T07:47:38;11.50;;;6.15;;
54557;SDS011;40452;50.080;20.040;2024-03-08T07:50:05;11.85;;;6.25;;
54557;SDS011;40452;50.080;20.040;2024-03-08T07:52:33;10.13;;;6.38;;
54557;SDS011;40452;50.080;20.040;2024-03-08T07:54:59;15.70;;;6.63;;
54557;SDS011;40452;50.080;20.040;2024-03-08T07:57:25;9.70;;;6.30;;
54557;SDS011;40452;50.080;20.040;2024-03-08T07:59:51;11.45;;;7.13;;
54557;SDS011;40452;50.080;20.040;2024-03-08T08:02:17;11.10;;;7.13;;
54557;SDS011;40452;50.080;20.040;2024-03-08T08:04:43;10.90;;;6.55;;
54557;SDS011;40452;50.080;20.040;2024-03-08T08:07:12;13.15;;;7.05;;
54557;SDS011;40452;50.080;20.040;2024-03-08T08:09:39;15.02;;;6.85;;
54557;SDS011;40452;50.080;20.040;2024-03-08T08:12:07;13.10;;;6.90;;
54557;SDS011;40452;50.080;20.040;2024-03-08T08:14:36;11.27;;;6.93;;
54557;SDS011;40452;50.080;20.040;2024-03-08T08:17:02;12.88;;;6.95;;
54557;SDS011;40452;50.080;20.040;2024-03-08T08:19:29;14.45;;;7.00;;
54557;SDS011;40452;50.080;20.040;2024-03-08T08:21:56;12.77;;;7.57;;
54557;SDS011;40452;50.080;20.040;2024-03-08T08:24:23;11.68;;;6.70;;
54557;SDS011;40452;50.080;20.040;2024-03-08T08:26:49;9.77;;;7.10;;
54557;SDS011;40452;50.080;20.040;2024-03-08T08:29:15;12.60;;;6.72;;
54557;SDS011;40452;50.080;20.040;2024-03-08T08:31:41;14.73;;;7.65;;
54557;SDS011;40452;50.080;20.040;2024-03-08T08:34:09;11.38;;;6.80;;
54557;SDS011;40452;50.080;20.040;2024-03-08T08:36:36;13.10;;;8.25;;
54557;SDS011;40452;50.080;20.040;2024-03-08T08:39:03;11.68;;;7.20;;
54557;SDS011;40452;50.080;20.040;2024-03-08T08:41:30;9.32;;;6.47;;
54557;SDS011;40452;50.080;20.040;2024-03-08T08:43:56;10.85;;;6.80;;
54557;SDS011;40452;50.080;20.040;2024-03-08T08:46:22;11.27;;;6.70;;
54557;SDS011;40452;50.080;20.040;2024-03-08T08:48:48;12.63;;;7.25;;
54557;SDS011;40452;50.080;20.040;2024-03-08T08:51:14;11.40;;;7.15;;
54557;SDS011;40452;50.080;20.040;2024-03-08T08:53:41;11.82;;;7.35;;
54557;SDS011;40452;50.080;20.040;2024-03-08T08:56:12;11.23;;;7.30;;
54557;SDS011;40452;50.080;20.040;2024-03-08T08:58:42;11.18;;;7.07;;
54557;SDS011;40452;50.080;20.040;2024-03-08T09:01:08;9.65;;;6.80;;
54557;SDS011;40452;50.080;20.040;2024-03-08T09:03:37;11.55;;;7.30;;
54557;SDS011;40452;50.080;20.040;2024-03-08T09:06:05;13.88;;;6.82;;
54557;SDS011;40452;50.080;20.040;2024-03-08T09:08:35;11.85;;;7.43;;
54557;SDS011;40452;50.080;20.040;2024-03-08T09:11:01;13.75;;;7.00;;
54557;SDS011;40452;50.080;20.040;2024-03-08T09:13:27;11.05;;;7.30;;
54557;SDS011;40452;50.080;20.040;2024-03-08T09:15:53;10.75;;;7.20;;
54557;SDS011;40452;50.080;20.040;2024-03-08T09:18:19;13.55;;;7.28;;
54557;SDS011;40452;50.080;20.040;2024-03-08T09:20:45;13.20;;;7.20;;
54557;SDS011;40452;50.080;20.040;2024-03-08T09:23:12;11.18;;;6.75;;
54557;SDS011;40452;50.080;20.040;2024-03-08T09:25:38;8.90;;;6.55;;
54557;SDS011;40452;50.080;20.040;2024-03-08T09:28:04;12.23;;;7.30;;
54557;SDS011;40452;50.080;20.040;2024-03-08T09:30:30;10.35;;;7.28;;
54557;SDS011;40452;50.080;20.040;2024-03-08T09:32:56;11.38;;;6.80;;
54557;SDS011;40452;50.080;20.040;2024-03-08T09:35:22;12.00;;;7.00;;
54557;SDS011;40452;50.080;20.040;2024-03-08T09:37:49;10.00;;;6.75;;
54557;SDS011;40452;50.080;20.040;2024-03-08T09:40:16;11.57;;;6.93;;
54557;SDS011;40452;50.080;20.040;2024-03-08T09:42:45;11.65;;;7.05;;
54557;SDS011;40452;50.080;20.040;2024-03-08T09:45:11;11.18;;;7.40;;
54557;SDS011;40452;50.080;20.040;2024-03-08T09:47:41;11.20;;;7.05;;
54557;SDS011;40452;50.080;20.040;2024-03-08T09:50:07;12.82;;;6.97;;
54557;SDS011;40452;50.080;20.040;2024-03-08T09:52:37;13.93;;;7.80;;
54557;SDS011;40452;50.080;20.040;2024-03-08T09:55:05;13.45;;;7.10;;
54557;SDS011;40452;50.080;20.040;2024-03-08T09:57:32;12.27;;;7.65;;
54557;SDS011;40452;50.080;20.040;2024-03-08T09:59:59;11.80;;;7.32;;
54557;SDS011;40452;50.080;20.040;2024-03-08T10:02:25;12.50;;;7.03;;
54557;SDS011;40452;50.080;20.040;2024-03-08T10:04:51;11.88;;;7.22;;
54557;SDS011;40452;50.080;20.040;2024-03-08T10:07:18;11.27;;;7.47;;
54557;SDS011;40452;50.080;20.040;2024-03-08T10:09:44;8.90;;;6.80;;
54557;SDS011;40452;50.080;20.040;2024-03-08T10:14:41;11.82;;;8.23;;
54557;SDS011;40452;50.080;20.040;2024-03-08T10:17:07;12.32;;;7.22;;
54557;SDS011;40452;50.080;20.040;2024-03-08T10:19:33;10.00;;;7.18;;
54557;SDS011;40452;50.080;20.040;2024-03-08T10:21:59;10.68;;;7.38;;
54557;SDS011;40452;50.080;20.040;2024-03-08T10:24:25;10.85;;;6.93;;
54557;SDS011;40452;50.080;20.040;2024-03-08T15:59:07;11.05;;;7.60;;
54557;SDS011;40452;50.080;20.040;2024-03-08T16:01:33;12.02;;;7.72;;
54557;SDS011;40452;50.080;20.040;2024-03-08T16:03:59;10.25;;;7.13;;
54557;SDS011;40452;50.080;20.040;2024-03-08T16:06:25;11.40;;;7.22;;
54557;SDS011;40452;50.080;20.040;2024-03-08T16:08:51;10.35;;;7.28;;
54557;SDS011;40452;50.080;20.040;2024-03-08T16:11:17;11.23;;;7.28;;
54557;SDS011;40452;50.080;20.040;2024-03-08T16:13:46;10.07;;;7.00;;
54557;SDS011;40452;50.080;20.040;2024-03-08T16:16:12;9.68;;;7.03;;
54557;SDS011;40452;50.080;20.040;2024-03-08T16:18:38;13.88;;;6.68;;
54557;SDS011;40452;50.080;20.040;2024-03-08T16:21:04;12.25;;;7.22;;
54557;SDS011;40452;50.080;20.040;2024-03-08T16:23:32;9.13;;;6.53;;
54557;SDS011;40452;50.080;20.040;2024-03-08T16:25:58;9.23;;;7.07;;
54557;SDS011;40452;50.080;20.040;2024-03-08T16:28:24;9.48;;;6.50;;
54557;SDS011;40452;50.080;20.040;2024-03-08T16:30:59;12.38;;;7.55;;
54557;SDS011;40452;50.080;20.040;2024-03-08T16:33:25;14.68;;;6.88;;
54557;SDS011;40452;50.080;20.040;2024-03-08T16:35:51;12.77;;;6.50;;
54557;SDS011;40452;50.080;20.040;2024-03-08T16:38:18;9.63;;;6.82;;
54557;SDS011;40452;50.080;20.040;2024-03-08T16:40:46;12.52;;;6.30;;
54557;SDS011;40452;50.080;20.040;2024-03-08T16:43:12;12.77;;;7.00;;
54557;SDS011;40452;50.080;20.040;2024-03-08T16:45:39;12.15;;;7.57;;
54557;SDS011;40452;50.080;20.040;2024-03-08T16:48:06;12.07;;;7.07;;
54557;SDS011;40452;50.080;20.040;2024-03-08T16:50:33;14.50;;;7.22;;
54557;SDS011;40452;50.080;20.040;2024-03-08T16:52:59;11.77;;;7.20;;
54557;SDS011;40452;50.080;20.040;2024-03-08T16:55:25;13.95;;;6.88;;
54557;SDS011;40452;50.080;20.040;2024-03-08T16:57:51;11.23;;;7.00;;
54557;SDS011;40452;50.080;20.040;2024-03-08T17:00:21;11.63;;;6.60;;
54557;SDS011;40452;50.080;20.040;2024-03-08T17:02:48;14.38;;;7.22;;
54557;SDS011;40452;50.080;20.040;2024-03-08T17:05:14;15.20;;;7.45;;
54557;SDS011;40452;50.080;20.040;2024-03-08T17:07:47;11.30;;;6.78;;
54557;SDS011;40452;50.080;20.040;2024-03-08T17:10:17;13.60;;;7.60;;
54557;SDS011;40452;50.080;20.040;2024-03-08T17:12:44;11.82;;;7.30;;
54557;SDS011;40452;50.080;20.040;2024-03-08T17:15:13;11.18;;;7.43;;
54557;SDS011;40452;50.080;20.040;2024-03-08T17:17:39;12.43;;;7.13;;
54557;SDS011;40452;50.080;20.040;2024-03-08T17:20:14;9.60;;;6.60;;
54557;SDS011;40452;50.080;20.040;2024-03-08T17:22:45;10.90;;;7.68;;
54557;SDS011;40452;50.080;20.040;2024-03-08T17:25:13;13.65;;;7.55;;
54557;SDS011;40452;50.080;20.040;2024-03-08T17:27:43;11.85;;;7.63;;
54557;SDS011;40452;50.080;20.040;2024-03-08T17:30:11;12.43;;;8.15;;
54557;SDS011;40452;50.080;20.040;2024-03-08T17:32:52;11.90;;;7.68;;
54557;SDS011;40452;50.080;20.040;2024-03-08T17:35:22;11.45;;;7.63;;
54557;SDS011;40452;50.080;20.040;2024-03-08T17:37:49;11.25;;;7.63;;
54557;SDS011;40452;50.080;20.040;2024-03-08T17:40:20;12.82;;;7.57;;
54557;SDS011;40452;50.080;20.040;2024-03-08T17:42:50;11.23;;;7.60;;
54557;SDS011;40452;50.080;20.040;2024-03-08T17:45:17;12.43;;;7.78;;
54557;SDS011;40452;50.080;20.040;2024-03-08T17:47:44;11.35;;;7.78;;
54557;SDS011;40452;50.080;20.040;2024-03-08T17:50:11;11.73;;;7.80;;
54557;SDS011;40452;50.080;20.040;2024-03-08T17:52:42;12.35;;;8.05;;
54557;SDS011;40452;50.080;20.040;2024-03-08T17:55:11;10.88;;;7.13;;
54557;SDS011;40452;50.080;20.040;2024-03-08T17:57:46;14.57;;;8.70;;
54557;SDS011;40452;50.080;20.040;2024-03-08T18:00:13;14.48;;;7.97;;
54557;SDS011;40452;50.080;20.040;2024-03-08T18:02:46;11.18;;;7.93;;
54557;SDS011;40452;50.080;20.040;2024-03-08T18:05:24;14.80;;;8.88;;
54557;SDS011;40452;50.080;20.040;2024-03-08T18:07:53;13.57;;;8.30;;
54557;SDS011;40452;50.080;20.040;2024-03-08T18:10:22;11.38;;;8.23;;
54557;SDS011;40452;50.080;20.040;2024-03-08T18:12:49;16.23;;;8.68;;
54557;SDS011;40452;50.080;20.040;2024-03-08T18:15:20;13.05;;;8.07;;
54557;SDS011;40452;50.080;20.040;2024-03-08T18:17:50;17.23;;;8.30;;
54557;SDS011;40452;50.080;20.040;2024-03-08T18:20:17;13.75;;;8.60;;
54557;SDS011;40452;50.080;20.040;2024-03-08T18:22:46;12.20;;;7.85;;
54557;SDS011;40452;50.080;20.040;2024-03-08T18:25:12;13.98;;;8.38;;
54557;SDS011;40452;50.080;20.040;2024-03-08T18:27:43;14.65;;;8.82;;
54557;SDS011;40452;50.080;20.040;2024-03-08T18:30:10;14.52;;;8.40;;
54557;SDS011;40452;50.080;20.040;2024-03-08T18:32:46;14.25;;;8.88;;
54557;SDS011;40452;50.080;20.040;2024-03-08T18:35:15;14.47;;;8.97;;
54557;SDS011;40452;50.080;20.040;2024-03-08T18:37:41;13.90;;;9.05;;
54557;SDS011;40452;50.080;20.040;2024-03-08T18:40:08;19.05;;;9.63;;
54557;SDS011;40452;50.080;20.040;2024-03-08T18:42:38;15.87;;;9.70;;
54557;SDS011;40452;50.080;20.040;2024-03-08T18:45:05;15.93;;;9.60;;
54557;SDS011;40452;50.080;20.040;2024-03-08T18:47:35;18.20;;;11.43;;
54557;SDS011;40452;50.080;20.040;2024-03-08T18:50:02;21.80;;;10.48;;
54557;SDS011;40452;50.080;20.040;2024-03-08T18:52:29;19.25;;;11.00;;
54557;SDS011;40452;50.080;20.040;2024-03-08T18:54:58;18.52;;;10.48;;
54557;SDS011;40452;50.080;20.040;2024-03-08T18:57:24;19.13;;;11.13;;
54557;SDS011;40452;50.080;20.040;2024-03-08T18:59:52;18.83;;;11.45;;
54557;SDS011;40452;50.080;20.040;2024-03-08T19:02:18;19.55;;;10.48;;
54557;SDS011;40452;50.080;20.040;2024-03-08T19:04:46;16.90;;;10.40;;
54557;SDS011;40452;50.080;20.040;2024-03-08T19:07:12;21.90;;;11.88;;
54557;SDS011;40452;50.080;20.040;2024-03-08T19:09:39;24.38;;;14.65;;
54557;SDS011;40452;50.080;20.040;2024-03-08T19:12:07;25.17;;;15.98;;
54557;SDS011;40452;50.080;20.040;2024-03-08T19:14:34;42.42;;;25.33;;
54557;SDS011;40452;50.080;20.040;2024-03-08T19:17:03;51.80;;;27.65;;
54557;SDS011;40452;50.080;20.040;2024-03-08T19:19:36;46.72;;;26.05;;
54557;SDS011;40452;50.080;20.040;2024-03-08T19:22:03;51.15;;;26.00;;
54557;SDS011;40452;50.080;20.040;2024-03-08T19:24:31;47.92;;;25.80;;
54557;SDS011;40452;50.080;20.040;2024-03-08T19:27:03;45.80;;;23.67;;
54557;SDS011;40452;50.080;20.040;2024-03-08T19:29:32;38.60;;;22.23;;
54557;SDS011;40452;50.080;20.040;2024-03-08T19:31:59;34.78;;;19.73;;
54557;SDS011;40452;50.080;20.040;2024-03-08T19:34:26;34.03;;;18.70;;
54557;SDS011;40452;50.080;20.040;2024-03-08T19:36:52;32.72;;;17.65;;
54557;SDS011;40452;50.080;20.040;2024-03-08T19:39:19;32.70;;;17.08;;
54557;SDS011;40452;50.080;20.040;2024-03-08T19:41:50;30.10;;;17.42;;
54557;SDS011;40452;50.080;20.040;2024-03-08T19:44:16;28.77;;;16.33;;
54557;SDS011;40452;50.080;20.040;2024-03-08T19:46:42;29.88;;;16.55;;
54557;SDS011;40452;50.080;20.040;2024-03-08T19:49:11;26.08;;;16.08;;
54557;SDS011;40452;50.080;20.040;2024-03-08T19:51:37;28.52;;;15.52;;
54557;SDS011;40452;50.080;20.040;2024-03-08T19:54:05;24.13;;;15.00;;
54557;SDS011;40452;50.080;20.040;2024-03-08T19:56:32;26.00;;;14.75;;
54557;SDS011;40452;50.080;20.040;2024-03-08T19:58:59;29.77;;;14.70;;
54557;SDS011;40452;50.080;20.040;2024-03-08T20:01:25;26.15;;;14.75;;
54557;SDS011;40452;50.080;20.040;2024-03-08T20:03:51;27.08;;;14.68;;
54557;SDS011;40452;50.080;20.040;2024-03-08T20:06:18;22.60;;;13.30;;
54557;SDS011;40452;50.080;20.040;2024-03-08T20:08:48;28.35;;;13.48;;
54557;SDS011;40452;50.080;20.040;2024-03-08T20:11:14;19.75;;;12.85;;
54557;SDS011;40452;50.080;20.040;2024-03-08T20:13:40;20.38;;;12.35;;
54557;SDS011;40452;50.080;20.040;2024-03-08T20:16:08;26.23;;;12.77;;
54557;SDS011;40452;50.080;20.040;2024-03-08T20:18:34;23.55;;;13.10;;
54557;SDS011;40452;50.080;20.040;2024-03-08T20:21:01;21.92;;;13.07;;
54557;SDS011;40452;50.080;20.040;2024-03-08T20:23:28;22.33;;;12.80;;
54557;SDS011;40452;50.080;20.040;2024-03-08T20:25:54;24.17;;;12.68;;
54557;SDS011;40452;50.080;20.040;2024-03-08T20:28:21;21.27;;;12.30;;
54557;SDS011;40452;50.080;20.040;2024-03-08T20:30:51;23.17;;;12.80;;
54557;SDS011;40452;50.080;20.040;2024-03-08T20:33:17;27.60;;;13.88;;
54557;SDS011;40452;50.080;20.040;2024-03-08T20:35:44;27.45;;;12.90;;
54557;SDS011;40452;50.080;20.040;2024-03-08T20:38:11;21.25;;;12.00;;
54557;SDS011;40452;50.080;20.040;2024-03-08T20:40:47;21.25;;;12.88;;
54557;SDS011;40452;50.080;20.040;2024-03-08T20:43:14;19.67;;;11.95;;
54557;SDS011;40452;50.080;20.040;2024-03-08T20:45:42;19.60;;;12.32;;
54557;SDS011;40452;50.080;20.040;2024-03-08T20:48:08;19.35;;;12.15;;
54557;SDS011;40452;50.080;20.040;2024-03-08T20:50:35;21.88;;;12.10;;
54557;SDS011;40452;50.080;20.040;2024-03-08T20:53:06;19.67;;;12.27;;
54557;SDS011;40452;50.080;20.040;2024-03-08T20:55:34;18.95;;;12.25;;
54557;SDS011;40452;50.080;20.040;2024-03-08T20:58:00;21.95;;;11.75;;
54557;SDS011;40452;50.080;20.040;2024-03-08T21:00:26;19.77;;;12.60;;
54557;SDS011;40452;50.080;20.040;2024-03-08T21:03:08;20.98;;;12.40;;
54557;SDS011;40452;50.080;20.040;2024-03-08T21:05:36;19.90;;;12.52;;
54557;SDS011;40452;50.080;20.040;2024-03-08T21:08:08;21.88;;;12.25;;
54557;SDS011;40452;50.080;20.040;2024-03-08T21:10:37;23.00;;;12.35;;
54557;SDS011;40452;50.080;20.040;2024-03-08T21:13:04;21.40;;;12.02;;
54557;SDS011;40452;50.080;20.040;2024-03-08T21:15:30;21.35;;;11.93;;
54557;SDS011;40452;50.080;20.040;2024-03-08T21:17:56;19.70;;;12.07;;
54557;SDS011;40452;50.080;20.040;2024-03-08T21:20:25;23.85;;;11.90;;
54557;SDS011;40452;50.080;20.040;2024-03-08T21:22:51;18.17;;;12.15;;
54557;SDS011;40452;50.080;20.040;2024-03-08T21:25:17;19.95;;;12.35;;
54557;SDS011;40452;50.080;20.040;2024-03-08T21:27:44;19.45;;;12.00;;
54557;SDS011;40452;50.080;20.040;2024-03-08T21:30:20;22.33;;;12.88;;
54557;SDS011;40452;50.080;20.040;2024-03-08T21:32:46;20.20;;;11.77;;
54557;SDS011;40452;50.080;20.040;2024-03-08T21:35:12;20.52;;;11.77;;
54557;SDS011;40452;50.080;20.040;2024-03-08T21:37:38;22.33;;;12.60;;
54557;SDS011;40452;50.080;20.040;2024-03-08T21:40:04;23.85;;;12.57;;
54557;SDS011;40452;50.080;20.040;2024-03-08T21:42:35;21.42;;;12.40;;
54557;SDS011;40452;50.080;20.040;2024-03-08T21:45:02;22.42;;;12.82;;
54557;SDS011;40452;50.080;20.040;2024-03-08T21:47:29;20.95;;;12.00;;
54557;SDS011;40452;50.080;20.040;2024-03-08T21:49:55;21.52;;;11.82;;
54557;SDS011;40452;50.080;20.040;2024-03-08T21:52:22;20.20;;;12.32;;
54557;SDS011;40452;50.080;20.040;2024-03-08T21:54:49;24.08;;;12.32;;
54557;SDS011;40452;50.080;20.040;2024-03-08T21:57:20;21.70;;;12.57;;
54557;SDS011;40452;50.080;20.040;2024-03-08T21:59:46;22.08;;;12.43;;
54557;SDS011;40452;50.080;20.040;2024-03-08T22:02:12;24.27;;;13.35;;
54557;SDS011;40452;50.080;20.040;2024-03-08T22:04:39;22.40;;;11.50;;
54557;SDS011;40452;50.080;20.040;2024-03-08T22:07:05;19.50;;;12.32;;
54557;SDS011;40452;50.080;20.040;2024-03-08T22:09:31;20.27;;;12.55;;
54557;SDS011;40452;50.080;20.040;2024-03-08T22:11:57;21.83;;;11.65;;
54557;SDS011;40452;50.080;20.040;2024-03-08T22:14:24;23.02;;;12.98;;
54557;SDS011;40452;50.080;20.040;2024-03-08T22:16:50;19.30;;;12.15;;
54557;SDS011;40452;50.080;20.040;2024-03-08T22:19:16;21.40;;;12.02;;
54557;SDS011;40452;50.080;20.040;2024-03-08T22:21:45;24.38;;;12.30;;
54557;SDS011;40452;50.080;20.040;2024-03-08T22:24:11;23.08;;;12.88;;
54557;SDS011;40452;50.080;20.040;2024-03-08T22:26:37;21.75;;;13.07;;
54557;SDS011;40452;50.080;20.040;2024-03-08T22:29:04;22.83;;;12.65;;
54557;SDS011;40452;50.080;20.040;2024-03-08T22:31:32;21.70;;;12.27;;
54557;SDS011;40452;50.080;20.040;2024-03-08T22:34:02;23.40;;;13.13;;
54557;SDS011;40452;50.080;20.040;2024-03-08T22:36:28;22.13;;;12.80;;
54557;SDS011;40452;50.080;20.040;2024-03-08T22:38:54;20.58;;;12.38;;
54557;SDS011;40452;50.080;20.040;2024-03-08T22:41:20;25.42;;;12.95;;
54557;SDS011;40452;50.080;20.040;2024-03-08T22:43:46;21.65;;;13.40;;
54557;SDS011;40452;50.080;20.040;2024-03-08T22:46:12;19.85;;;12.95;;
54557;SDS011;40452;50.080;20.040;2024-03-08T22:48:39;21.08;;;13.23;;
54557;SDS011;40452;50.080;20.040;2024-03-08T22:51:06;26.05;;;13.13;;
54557;SDS011;40452;50.080;20.040;2024-03-08T22:53:33;23.25;;;12.70;;
54557;SDS011;40452;50.080;20.040;2024-03-08T22:56:00;22.35;;;14.05;;
54557;SDS011;40452;50.080;20.040;2024-03-08T22:58:26;23.33;;;13.73;;
54557;SDS011;40452;50.080;20.040;2024-03-08T23:00:53;23.17;;;13.38;;
54557;SDS011;40452;50.080;20.040;2024-03-08T23:03:21;25.48;;;13.38;;
54557;SDS011;40452;50.080;20.040;2024-03-08T23:05:49;28.33;;;14.05;;
54557;SDS011;40452;50.080;20.040;2024-03-08T23:08:16;23.75;;;13.95;;
54557;SDS011;40452;50.080;20.040;2024-03-08T23:10:43;25.70;;;14.00;;
54557;SDS011;40452;50.080;20.040;2024-03-08T23:13:09;27.42;;;14.48;;
54557;SDS011;40452;50.080;20.040;2024-03-08T23:15:38;21.42;;;14.02;;
54557;SDS011;40452;50.080;20.040;2024-03-08T23:18:06;25.88;;;15.20;;
54557;SDS011;40452;50.080;20.040;2024-03-08T23:20:35;26.00;;;15.00;;
54557;SDS011;40452;50.080;20.040;2024-03-08T23:23:02;24.80;;;15.02;;
54557;SDS011;40452;50.080;20.040;2024-03-08T23:25:31;25.83;;;15.20;;
54557;SDS011;40452;50.080;20.040;2024-03-08T23:27:59;25.17;;;14.52;;
54557;SDS011;40452;50.080;20.040;2024-03-08T23:30:27;25.35;;;15.25;;
54557;SDS011;40452;50.080;20.040;2024-03-08T23:32:53;26.38;;;15.52;;
54557;SDS011;40452;50.080;20.040;2024-03-08T23:35:19;28.85;;;15.55;;
54557;SDS011;40452;50.080;20.040;2024-03-08T23:37:46;26.98;;;15.48;;
54557;SDS011;40452;50.080;20.040;2024-03-08T23:40:15;27.60;;;16.10;;
54557;SDS011;40452;50.080;20.040;2024-03-08T23:42:43;26.08;;;16.08;;
54557;SDS011;40452;50.080;20.040;2024-03-08T23:45:12;24.23;;;15.45;;
54557;SDS011;40452;50.080;20.040;2024-03-08T23:47:51;30.38;;;16.10;;
54557;SDS011;40452;50.080;20.040;2024-03-08T23:50:23;27.58;;;16.02;;
54557;SDS011;40452;50.080;20.040;2024-03-08T23:52:52;31.85;;;15.63;;
54557;SDS011;40452;50.080;20.040;2024-03-08T23:55:19;29.55;;;17.13;;
54557;SDS011;40452;50.080;20.040;2024-03-08T23:57:58;28.92;;;17.02;;
